createdAt,value
2017-11-09T00:00:39.553Z,101381
2017-11-09T00:03:08.756Z,101375
2017-11-09T00:05:43.438Z,101385
2017-11-09T00:08:11.589Z,101374
2017-11-09T00:10:40.762Z,101382
2017-11-09T00:13:09.060Z,101381
2017-11-09T00:15:38.324Z,101379
2017-11-09T00:18:06.791Z,101379
2017-11-09T00:20:34.971Z,101380
2017-11-09T00:23:03.686Z,101380
2017-11-09T00:25:31.838Z,101386
2017-11-09T00:28:00.436Z,101389
2017-11-09T00:30:28.627Z,101393
2017-11-09T00:32:56.767Z,101385
2017-11-09T00:35:25.922Z,101394
2017-11-09T00:37:54.562Z,101394
2017-11-09T00:40:22.728Z,101393
2017-11-09T00:42:51.162Z,101391
2017-11-09T00:45:20.331Z,101394
2017-11-09T00:47:48.454Z,101387
2017-11-09T00:50:17.319Z,101402
2017-11-09T00:52:45.556Z,101397
2017-11-09T00:55:14.251Z,101401
2017-11-09T00:57:42.953Z,101395
2017-11-09T01:00:11.887Z,101402
2017-11-09T01:02:40.098Z,101403
2017-11-09T01:05:09.125Z,101418
2017-11-09T01:07:38.158Z,101416
2017-11-09T01:10:06.292Z,101411
2017-11-09T01:12:34.469Z,101418
2017-11-09T01:15:03.220Z,101409
2017-11-09T01:17:31.325Z,101414
2017-11-09T01:20:00.240Z,101416
2017-11-09T01:22:28.371Z,101411
2017-11-09T01:24:56.539Z,101416
2017-11-09T01:27:25.673Z,101409
2017-11-09T01:29:54.120Z,101405
2017-11-09T01:32:23.141Z,101407
2017-11-09T01:34:51.358Z,101419
2017-11-09T01:37:20.464Z,101414
2017-11-09T01:39:48.637Z,101406
2017-11-09T01:42:16.946Z,101418
2017-11-09T01:44:45.081Z,101417
2017-11-09T01:47:14.513Z,101428
2017-11-09T01:49:43.085Z,101430
2017-11-09T01:52:11.958Z,101422
2017-11-09T01:54:40.376Z,101426
2017-11-09T01:57:08.611Z,101434
2017-11-09T01:59:38.317Z,101432
2017-11-09T02:02:07.384Z,101431
2017-11-09T02:04:35.613Z,101434
2017-11-09T02:07:04.077Z,101442
2017-11-09T02:09:32.679Z,101440
2017-11-09T02:12:00.871Z,101429
2017-11-09T02:14:29.219Z,101434
2017-11-09T02:16:58.309Z,101431
2017-11-09T02:19:26.464Z,101432
2017-11-09T02:21:54.594Z,101425
2017-11-09T02:24:27.664Z,101439
2017-11-09T02:26:56.549Z,101439
2017-11-09T02:29:24.650Z,101437
2017-11-09T02:31:52.817Z,101441
2017-11-09T02:34:22.101Z,101444
2017-11-09T02:36:50.501Z,101444
2017-11-09T02:39:18.661Z,101448
2017-11-09T02:41:46.768Z,101460
2017-11-09T02:44:15.123Z,101448
2017-11-09T02:46:43.320Z,101459
2017-11-09T02:49:11.434Z,101457
2017-11-09T02:51:39.578Z,101457
2017-11-09T02:54:07.686Z,101461
2017-11-09T02:56:35.832Z,101456
2017-11-09T02:59:04.001Z,101463
2017-11-09T03:01:32.106Z,101464
2017-11-09T03:04:00.239Z,101465
2017-11-09T03:06:29.825Z,101467
2017-11-09T03:08:57.977Z,101459
2017-11-09T03:11:26.166Z,101461
2017-11-09T03:13:54.505Z,101460
2017-11-09T03:16:23.688Z,101456
2017-11-09T03:18:51.813Z,101461
2017-11-09T03:21:19.954Z,101449
2017-11-09T03:23:48.951Z,101459
2017-11-09T03:26:18.032Z,101459
2017-11-09T03:28:46.153Z,101462
2017-11-09T03:31:15.251Z,101467
2017-11-09T03:33:44.449Z,101467
2017-11-09T03:36:13.310Z,101464
2017-11-09T03:38:41.463Z,101467
2017-11-09T03:41:09.562Z,101462
2017-11-09T03:43:37.748Z,101475
2017-11-09T03:46:05.894Z,101456
2017-11-09T03:48:34.040Z,101457
2017-11-09T03:51:02.169Z,101472
2017-11-09T03:53:32.203Z,101466
2017-11-09T03:56:01.285Z,101466
2017-11-09T03:58:29.426Z,101468
2017-11-09T04:00:57.559Z,101462
2017-11-09T04:03:25.798Z,101459
2017-11-09T04:05:55.092Z,101453
2017-11-09T04:08:23.226Z,101462
2017-11-09T04:10:51.342Z,101464
2017-11-09T04:13:19.581Z,101459
2017-11-09T04:15:47.702Z,101472
2017-11-09T04:18:16.227Z,101465
2017-11-09T04:20:44.379Z,101463
2017-11-09T04:23:12.577Z,101457
2017-11-09T04:25:40.753Z,101465
2017-11-09T04:28:09.597Z,101458
2017-11-09T04:30:37.769Z,101465
2017-11-09T04:33:06.688Z,101467
2017-11-09T04:35:34.804Z,101465
2017-11-09T04:38:03.541Z,101463
2017-11-09T04:40:31.651Z,101459
2017-11-09T04:42:59.746Z,101463
2017-11-09T04:45:28.832Z,101456
2017-11-09T04:47:56.949Z,101458
2017-11-09T04:50:25.135Z,101451
2017-11-09T04:52:53.266Z,101454
2017-11-09T04:55:21.415Z,101454
2017-11-09T04:57:49.562Z,101451
2017-11-09T05:00:17.681Z,101449
2017-11-09T05:02:46.835Z,101456
2017-11-09T05:05:15.040Z,101456
2017-11-09T05:07:44.095Z,101453
2017-11-09T05:10:12.193Z,101463
2017-11-09T05:12:40.453Z,101468
2017-11-09T05:15:08.662Z,101467
2017-11-09T05:17:37.983Z,101461
2017-11-09T05:20:06.157Z,101475
2017-11-09T05:22:35.759Z,101464
2017-11-09T05:25:03.998Z,101468
2017-11-09T05:27:32.123Z,101463
2017-11-09T05:30:01.803Z,101464
2017-11-09T05:32:30.150Z,101472
2017-11-09T05:34:59.219Z,101469
2017-11-09T05:37:27.445Z,101465
2017-11-09T05:39:55.847Z,101464
2017-11-09T05:42:25.943Z,101465
2017-11-09T05:44:54.253Z,101469
2017-11-09T05:47:23.206Z,101471
2017-11-09T05:49:51.339Z,101469
2017-11-09T05:52:19.885Z,101478
2017-11-09T05:54:48.076Z,101471
2017-11-09T05:57:17.177Z,101466
2017-11-09T05:59:46.429Z,101471
2017-11-09T06:02:14.921Z,101471
2017-11-09T06:04:43.116Z,101476
2017-11-09T06:07:14.083Z,101483
2017-11-09T06:09:42.192Z,101487
2017-11-09T06:12:11.489Z,101494
2017-11-09T06:14:39.705Z,101494
2017-11-09T06:17:08.769Z,101491
2017-11-09T06:19:37.161Z,101494
2017-11-09T06:22:06.061Z,101498
2017-11-09T06:24:35.178Z,101508
2017-11-09T06:27:03.512Z,101499
2017-11-09T06:29:32.431Z,101505
2017-11-09T06:32:01.555Z,101514
2017-11-09T06:34:29.666Z,101504
2017-11-09T06:36:58.084Z,101502
2017-11-09T06:39:26.527Z,101503
2017-11-09T06:41:54.885Z,101501
2017-11-09T06:44:24.973Z,101499
2017-11-09T06:46:53.880Z,101512
2017-11-09T06:49:22.820Z,101518
2017-11-09T06:51:52.475Z,101528
2017-11-09T06:54:21.605Z,101524
2017-11-09T06:56:49.777Z,101525
2017-11-09T06:59:18.234Z,101521
2017-11-09T07:01:46.473Z,101532
2017-11-09T07:04:14.629Z,101511
2017-11-09T07:06:42.951Z,101539
2017-11-09T07:09:11.978Z,101548
2017-11-09T07:11:40.112Z,101549
2017-11-09T07:14:09.746Z,101552
2017-11-09T07:16:37.893Z,101548
2017-11-09T07:19:06.821Z,101551
2017-11-09T07:21:35.184Z,101555
2017-11-09T07:24:04.430Z,101554
2017-11-09T07:26:32.544Z,101558
2017-11-09T07:29:01.864Z,101558
2017-11-09T07:31:29.963Z,101561
2017-11-09T07:33:58.095Z,101567
2017-11-09T07:36:27.052Z,101564
2017-11-09T07:38:55.152Z,101556
2017-11-09T07:41:24.477Z,101550
2017-11-09T07:43:54.499Z,101557
2017-11-09T07:46:22.717Z,101553
2017-11-09T07:48:50.871Z,101553
2017-11-09T07:51:19.816Z,101559
2017-11-09T07:53:48.145Z,101558
2017-11-09T07:56:16.244Z,101560
2017-11-09T07:58:44.370Z,101552
2017-11-09T08:01:12.768Z,101566
2017-11-09T08:03:41.072Z,101561
2017-11-09T08:06:09.423Z,101571
2017-11-09T08:08:38.429Z,101580
2017-11-09T08:11:07.429Z,101572
2017-11-09T08:13:35.677Z,101555
2017-11-09T08:16:04.873Z,101574
2017-11-09T08:18:33.769Z,101577
2017-11-09T08:21:01.897Z,101588
2017-11-09T08:23:30.765Z,101589
2017-11-09T08:26:00.229Z,101585
2017-11-09T08:28:33.449Z,101589
2017-11-09T08:31:06.945Z,101595
2017-11-09T08:33:38.324Z,101604
2017-11-09T08:36:06.546Z,101604
2017-11-09T08:38:34.686Z,101614
2017-11-09T08:41:03.766Z,101607
2017-11-09T08:43:31.949Z,101608
2017-11-09T08:46:00.081Z,101615
2017-11-09T08:48:28.186Z,101601
2017-11-09T08:50:56.325Z,101600
2017-11-09T08:53:24.421Z,101600
2017-11-09T08:55:53.450Z,101594
2017-11-09T08:58:21.553Z,101601
2017-11-09T09:00:49.695Z,101591
2017-11-09T09:03:17.821Z,101590
2017-11-09T09:05:46.605Z,101588
2017-11-09T09:08:14.799Z,101598
2017-11-09T09:10:43.004Z,101595
2017-11-09T09:13:11.728Z,101596
2017-11-09T09:15:41.044Z,101601
2017-11-09T09:18:12.448Z,101599
2017-11-09T09:23:47.649Z,101605
2017-11-09T09:26:16.233Z,101613
2017-11-09T09:29:00.021Z,101614
2017-11-09T09:31:30.013Z,101615
2017-11-09T09:34:16.204Z,101608
2017-11-09T09:36:49.918Z,101607
2017-11-09T09:39:21.449Z,101608
2017-11-09T09:41:49.562Z,101606
2017-11-09T09:44:18.001Z,101608
2017-11-09T09:46:46.197Z,101608
2017-11-09T09:49:15.466Z,101606
2017-11-09T09:51:43.610Z,101601
2017-11-09T09:54:11.819Z,101597
2017-11-09T09:56:39.967Z,101603
2017-11-09T09:59:08.853Z,101601
2017-11-09T10:01:37.004Z,101600
2017-11-09T10:04:05.217Z,101601
2017-11-09T10:06:33.345Z,101612
2017-11-09T10:09:01.482Z,101600
2017-11-09T10:11:29.789Z,101608
2017-11-09T10:13:58.734Z,101601
2017-11-09T10:16:26.878Z,101599
2017-11-09T10:18:55.097Z,101609
2017-11-09T10:21:23.245Z,101613
2017-11-09T10:23:51.476Z,101606
2017-11-09T10:26:19.593Z,101602
2017-11-09T10:28:47.707Z,101596
2017-11-09T10:31:15.841Z,101596
2017-11-09T10:33:44.019Z,101590
2017-11-09T10:36:12.210Z,101592
2017-11-09T10:38:40.478Z,101587
2017-11-09T10:41:08.864Z,101590
2017-11-09T10:43:36.986Z,101590
2017-11-09T10:46:05.113Z,101585
2017-11-09T10:48:33.226Z,101588
2017-11-09T10:51:01.402Z,101579
2017-11-09T10:53:30.323Z,101592
2017-11-09T10:55:59.198Z,101583
2017-11-09T10:58:27.308Z,101577
2017-11-09T11:00:56.333Z,101578
2017-11-09T11:03:24.427Z,101594
2017-11-09T11:05:53.302Z,101596
2017-11-09T11:08:22.194Z,101586
2017-11-09T11:10:51.091Z,101592
2017-11-09T11:13:19.985Z,101602
2017-11-09T11:15:48.869Z,101597
2017-11-09T11:18:18.033Z,101591
2017-11-09T11:20:46.138Z,101592
2017-11-09T11:23:15.060Z,101588
2017-11-09T11:25:44.093Z,101576
2017-11-09T11:28:13.184Z,101581
2017-11-09T11:30:41.327Z,101563
2017-11-09T11:33:09.454Z,101571
2017-11-09T11:35:37.597Z,101578
2017-11-09T11:38:05.728Z,101572
2017-11-09T11:40:33.878Z,101571
2017-11-09T11:43:01.989Z,101402
2017-11-09T11:45:30.101Z,101568
2017-11-09T11:48:00.069Z,101563
2017-11-09T11:50:28.167Z,101564
2017-11-09T11:52:56.290Z,101555
2017-11-09T11:55:25.182Z,101557
2017-11-09T11:57:54.100Z,101565
2017-11-09T12:00:23.190Z,101558
2017-11-09T12:02:55.285Z,101557
2017-11-09T12:05:23.402Z,101562
2017-11-09T12:07:52.292Z,101554
2017-11-09T12:10:23.160Z,101559
2017-11-09T12:12:51.299Z,101545
2017-11-09T12:15:19.418Z,101548
2017-11-09T12:17:47.549Z,101549
2017-11-09T12:20:16.678Z,101546
2017-11-09T12:22:44.793Z,101550
2017-11-09T12:25:12.926Z,101554
2017-11-09T12:27:41.060Z,101548
2017-11-09T12:30:09.337Z,101548
2017-11-09T12:32:37.455Z,101541
2017-11-09T12:35:06.530Z,101538
2017-11-09T12:37:35.381Z,101535
2017-11-09T12:40:03.793Z,101544
2017-11-09T12:42:32.653Z,101542
2017-11-09T12:45:00.814Z,101544
2017-11-09T12:47:28.916Z,101545
2017-11-09T12:49:58.162Z,101538
2017-11-09T12:52:26.297Z,101547
2017-11-09T12:54:55.199Z,101542
2017-11-09T12:57:23.332Z,101540
2017-11-09T12:59:51.454Z,101535
2017-11-09T13:02:19.632Z,101538
2017-11-09T13:04:47.752Z,101543
2017-11-09T13:07:15.863Z,101550
2017-11-09T13:09:44.043Z,101542
2017-11-09T13:12:12.202Z,101540
2017-11-09T13:14:40.327Z,101535
2017-11-09T13:17:08.437Z,101539
2017-11-09T13:19:36.557Z,101537
2017-11-09T13:22:04.718Z,101534
2017-11-09T13:24:32.886Z,101530
2017-11-09T13:27:01.798Z,101533
2017-11-09T13:29:29.916Z,101543
2017-11-09T13:31:58.089Z,101547
2017-11-09T13:34:26.249Z,101552
2017-11-09T13:36:54.378Z,101552
2017-11-09T13:39:22.515Z,101552
2017-11-09T13:41:51.535Z,101556
2017-11-09T13:44:19.646Z,101566
2017-11-09T13:46:47.780Z,101557
2017-11-09T13:49:15.897Z,101543
2017-11-09T13:51:44.038Z,101552
2017-11-09T13:54:12.169Z,101559
2017-11-09T13:56:41.050Z,101560
2017-11-09T13:59:09.223Z,101561
2017-11-09T14:01:37.442Z,101553
2017-11-09T14:04:05.540Z,101562
2017-11-09T14:06:34.736Z,101557
2017-11-09T14:09:04.019Z,101556
2017-11-09T14:11:32.172Z,101558
2017-11-09T14:14:00.287Z,101554
2017-11-09T14:16:28.606Z,101571
2017-11-09T14:18:56.722Z,101582
2017-11-09T14:21:24.838Z,101594
2017-11-09T14:23:52.968Z,101572
2017-11-09T14:26:21.106Z,101566
2017-11-09T14:28:50.019Z,101564
2017-11-09T14:31:18.200Z,101558
2017-11-09T14:33:47.335Z,101559
2017-11-09T14:36:15.478Z,101558
2017-11-09T14:38:43.586Z,101551
2017-11-09T14:41:11.706Z,101543
2017-11-09T14:43:40.929Z,101554
2017-11-09T14:46:10.035Z,101553
2017-11-09T14:48:38.281Z,101561
2017-11-09T14:51:06.425Z,101559
2017-11-09T14:53:34.569Z,101556
2017-11-09T14:56:02.682Z,101555
2017-11-09T14:58:31.543Z,101565
2017-11-09T15:01:01.582Z,101557
2017-11-09T15:03:29.671Z,101545
2017-11-09T15:05:59.985Z,101546
2017-11-09T15:08:28.903Z,101539
2017-11-09T15:10:57.079Z,101544
2017-11-09T15:13:25.277Z,101549
2017-11-09T15:15:55.326Z,101542
2017-11-09T15:18:23.419Z,101545
2017-11-09T15:20:51.613Z,101542
2017-11-09T15:23:19.761Z,101542
2017-11-09T15:25:47.927Z,101540
2017-11-09T15:28:16.096Z,101536
2017-11-09T15:30:44.339Z,101525
2017-11-09T15:33:12.557Z,101534
2017-11-09T15:35:46.061Z,101539
2017-11-09T15:38:16.817Z,101539
2017-11-09T15:40:44.948Z,101532
2017-11-09T15:43:13.286Z,101530
2017-11-09T15:45:41.405Z,101531
2017-11-09T15:48:09.745Z,101529
2017-11-09T15:50:37.848Z,101532
2017-11-09T15:53:05.968Z,101516
2017-11-09T15:55:34.102Z,101514
2017-11-09T15:58:02.229Z,101508
2017-11-09T16:00:30.357Z,101512
2017-11-09T16:02:58.538Z,101518
2017-11-09T16:05:26.701Z,101510
2017-11-09T16:07:55.726Z,101509
2017-11-09T16:10:23.902Z,101524
2017-11-09T16:12:52.046Z,101525
2017-11-09T16:15:20.160Z,101524
2017-11-09T16:17:48.617Z,101520
2017-11-09T16:20:16.766Z,101522
2017-11-09T16:22:44.871Z,101520
2017-11-09T16:25:13.006Z,101515
2017-11-09T16:27:41.123Z,101508
2017-11-09T16:30:09.999Z,101506
2017-11-09T16:32:38.166Z,101498
2017-11-09T16:35:06.298Z,101506
2017-11-09T16:37:34.593Z,101519
2017-11-09T16:40:03.093Z,101518
2017-11-09T16:42:37.125Z,101524
2017-11-09T16:45:05.272Z,101515
2017-11-09T16:47:34.266Z,101518
2017-11-09T16:50:02.462Z,101512
2017-11-09T16:52:30.597Z,101506
2017-11-09T16:54:58.705Z,101500
2017-11-09T16:57:26.809Z,101506
2017-11-09T16:59:55.002Z,101509
2017-11-09T17:02:24.008Z,101513
2017-11-09T17:04:52.133Z,101524
2017-11-09T17:07:25.004Z,101514
2017-11-09T17:09:53.188Z,101521
2017-11-09T17:12:21.301Z,101518
2017-11-09T17:14:49.420Z,101527
2017-11-09T17:17:18.290Z,101521
2017-11-09T17:19:49.110Z,101514
2017-11-09T17:22:23.671Z,101523
2017-11-09T17:24:55.094Z,101530
2017-11-09T17:27:23.250Z,101530
2017-11-09T17:29:51.352Z,101530
2017-11-09T17:32:19.496Z,101529
2017-11-09T17:34:47.669Z,101532
2017-11-09T17:37:19.380Z,101518
2017-11-09T17:39:47.503Z,101514
2017-11-09T17:42:19.382Z,101515
2017-11-09T17:44:47.537Z,101513
2017-11-09T17:47:15.709Z,101512
2017-11-09T17:49:43.843Z,101523
2017-11-09T17:52:11.962Z,101518
2017-11-09T17:54:40.105Z,101517
2017-11-09T17:57:10.049Z,101518
2017-11-09T18:02:37.977Z,101531
2017-11-09T18:05:06.875Z,101534
2017-11-09T18:07:35.928Z,101548
2017-11-09T18:10:04.147Z,101546
2017-11-09T18:12:32.289Z,101541
2017-11-09T18:15:00.425Z,101556
2017-11-09T18:17:28.521Z,101560
2017-11-09T18:19:56.678Z,101553
2017-11-09T18:22:28.500Z,101559
2017-11-09T18:24:57.610Z,101562
2017-11-09T18:27:25.807Z,101565
2017-11-09T18:29:53.914Z,101558
2017-11-09T18:32:25.845Z,101557
2017-11-09T18:34:53.974Z,101571
2017-11-09T18:37:22.279Z,101578
2017-11-09T18:39:50.444Z,101571
2017-11-09T18:42:20.225Z,101583
2017-11-09T18:44:49.173Z,101576
2017-11-09T18:47:17.311Z,101570
2017-11-09T18:49:45.652Z,101574
2017-11-09T18:52:13.776Z,101580
2017-11-09T18:54:41.907Z,101580
2017-11-09T18:57:10.808Z,101572
2017-11-09T18:59:45.361Z,101571
2017-11-09T19:02:13.489Z,101562
2017-11-09T19:04:45.054Z,101566
2017-11-09T19:07:14.162Z,101570
2017-11-09T19:09:42.358Z,101576
2017-11-09T19:12:10.486Z,101577
2017-11-09T19:14:40.347Z,101568
2017-11-09T19:17:09.524Z,101574
2017-11-09T19:19:37.668Z,101575
2017-11-09T19:22:05.944Z,101573
2017-11-09T19:24:34.093Z,101566
2017-11-09T19:27:02.215Z,101549
2017-11-09T19:29:30.338Z,101542
2017-11-09T19:31:58.562Z,101531
2017-11-09T19:34:27.423Z,101532
2017-11-09T19:36:56.405Z,101535
2017-11-09T19:39:25.488Z,101536
2017-11-09T19:41:53.608Z,101533
2017-11-09T19:44:21.777Z,101523
2017-11-09T19:46:49.915Z,101547
2017-11-09T19:49:18.006Z,101546
2017-11-09T19:51:46.499Z,101552
2017-11-09T19:54:14.652Z,101550
2017-11-09T19:56:42.759Z,101542
2017-11-09T19:59:10.884Z,101547
2017-11-09T20:01:38.998Z,101556
2017-11-09T20:04:08.038Z,101549
2017-11-09T20:06:36.137Z,101543
2017-11-09T20:09:04.291Z,101547
2017-11-09T20:11:32.398Z,101556
2017-11-09T20:14:00.561Z,101552
2017-11-09T20:16:28.718Z,101546
2017-11-09T20:18:57.744Z,101548
2017-11-09T20:21:25.906Z,101543
2017-11-09T20:23:54.173Z,101534
2017-11-09T20:26:22.346Z,101552
2017-11-09T20:28:50.570Z,101541
2017-11-09T20:31:22.399Z,101536
2017-11-09T20:33:50.526Z,101527
2017-11-09T20:36:18.625Z,101531
2017-11-09T20:38:47.729Z,101523
2017-11-09T20:41:15.874Z,101523
2017-11-09T20:43:43.990Z,101513
2017-11-09T20:46:12.121Z,101515
2017-11-09T20:48:40.254Z,101519
2017-11-09T20:51:08.390Z,101510
2017-11-09T20:53:37.181Z,101515
2017-11-09T20:56:05.302Z,101528
2017-11-09T20:58:36.281Z,101525
2017-11-09T21:01:04.413Z,101518
2017-11-09T21:03:32.513Z,101513
2017-11-09T21:06:01.584Z,101522
2017-11-09T21:08:29.694Z,101518
2017-11-09T21:10:57.803Z,101513
2017-11-09T21:13:25.927Z,101508
2017-11-09T21:15:55.136Z,101499
2017-11-09T21:18:23.222Z,101506
2017-11-09T21:20:51.382Z,101505
2017-11-09T21:23:19.505Z,101517
2017-11-09T21:25:48.547Z,101532
2017-11-09T21:28:17.380Z,101505
2017-11-09T21:30:46.369Z,101501
2017-11-09T21:33:16.390Z,101510
2017-11-09T21:35:45.288Z,101516
2017-11-09T21:38:14.229Z,101524
2017-11-09T21:40:42.376Z,101522
2017-11-09T21:43:10.500Z,101503
2017-11-09T21:45:38.695Z,101494
2017-11-09T21:48:06.904Z,101507
2017-11-09T21:50:35.121Z,101500
2017-11-09T21:53:03.291Z,101484
2017-11-09T21:55:31.439Z,101483
2017-11-09T21:58:05.245Z,101478
2017-11-09T22:00:33.525Z,101481
2017-11-09T22:03:01.714Z,101490
2017-11-09T22:05:29.889Z,101486
2017-11-09T22:07:58.983Z,101479
2017-11-09T22:10:27.200Z,101471
2017-11-09T22:12:55.611Z,101476
2017-11-09T22:15:23.798Z,101461
2017-11-09T22:17:52.080Z,101451
2017-11-09T22:20:20.242Z,101442
2017-11-09T22:22:48.465Z,101440
2017-11-09T22:25:16.590Z,101463
2017-11-09T22:27:44.745Z,101457
2017-11-09T22:30:12.985Z,101445
2017-11-09T22:32:41.090Z,101442
2017-11-09T22:35:10.178Z,101443
2017-11-09T22:37:39.053Z,101443
2017-11-09T22:40:07.201Z,101447
2017-11-09T22:42:35.293Z,101444
2017-11-09T22:45:03.505Z,101443
2017-11-09T22:47:31.601Z,101438
2017-11-09T22:49:59.774Z,101433
2017-11-09T22:52:27.936Z,101429
2017-11-09T22:54:56.069Z,101435
2017-11-09T22:57:25.030Z,101444
2017-11-09T22:59:53.155Z,101442
2017-11-09T23:02:21.261Z,101432
2017-11-09T23:04:49.651Z,101438
2017-11-09T23:07:17.750Z,101432
2017-11-09T23:09:46.693Z,101426
2017-11-09T23:12:14.826Z,101433
2017-11-09T23:14:42.942Z,101441
2017-11-09T23:17:11.053Z,101418
2017-11-09T23:19:39.234Z,101421
2017-11-09T23:22:08.089Z,101431
2017-11-09T23:24:36.182Z,101425
2017-11-09T23:27:04.330Z,101430
2017-11-09T23:29:32.486Z,101429
2017-11-09T23:32:02.402Z,101441
2017-11-09T23:34:32.728Z,101440
2017-11-09T23:37:00.970Z,101417
2017-11-09T23:39:29.134Z,101405
2017-11-09T23:41:57.316Z,101403
2017-11-09T23:44:28.526Z,101401
2017-11-09T23:46:59.583Z,101393
2017-11-09T23:49:28.852Z,101392
2017-11-09T23:51:57.057Z,101388
2017-11-09T23:54:27.242Z,101376
2017-11-09T23:56:56.784Z,101381
2017-11-09T23:59:26.068Z,101381
